sensor_id;sensor_type;location;lat;lon;timestamp;P1;durP1;ratioP1;P2;durP2;ratioP2
74656;SDS011;63185;45.642;13.764;2022-11-20T00:01:03;0.30;;;0.10;;
74656;SDS011;63185;45.642;13.764;2022-11-20T00:03:40;0.20;;;0.10;;
74656;SDS011;63185;45.642;13.764;2022-11-20T00:06:10;0.28;;;0.10;;
74656;SDS011;63185;45.642;13.764;2022-11-20T00:08:37;0.22;;;0.10;;
74656;SDS011;63185;45.642;13.764;2022-11-20T00:11:03;0.40;;;0.10;;
74656;SDS011;63185;45.642;13.764;2022-11-20T00:13:29;1.45;;;0.10;;
74656;SDS011;63185;45.642;13.764;2022-11-20T00:15:58;0.15;;;0.10;;
74656;SDS011;63185;45.642;13.764;2022-11-20T00:18:26;0.50;;;0.17;;
74656;SDS011;63185;45.642;13.764;2022-11-20T00:20:52;0.10;;;0.10;;
74656;SDS011;63185;45.642;13.764;2022-11-20T00:23:18;0.20;;;0.10;;
74656;SDS011;63185;45.642;13.764;2022-11-20T00:25:44;0.20;;;0.10;;
74656;SDS011;63185;45.642;13.764;2022-11-20T00:28:10;0.52;;;0.10;;
74656;SDS011;63185;45.642;13.764;2022-11-20T00:30:36;0.32;;;0.10;;
74656;SDS011;63185;45.642;13.764;2022-11-20T00:33:01;0.32;;;0.13;;
74656;SDS011;63185;45.642;13.764;2022-11-20T00:35:27;1.95;;;0.10;;
74656;SDS011;63185;45.642;13.764;2022-11-20T00:37:53;0.75;;;0.10;;
74656;SDS011;63185;45.642;13.764;2022-11-20T00:40:18;0.25;;;0.10;;
74656;SDS011;63185;45.642;13.764;2022-11-20T00:42:44;0.55;;;0.10;;
74656;SDS011;63185;45.642;13.764;2022-11-20T00:45:10;0.17;;;0.10;;
74656;SDS011;63185;45.642;13.764;2022-11-20T00:47:35;0.52;;;0.20;;
74656;SDS011;63185;45.642;13.764;2022-11-20T00:50:01;0.00;;;0.00;;
74656;SDS011;63185;45.642;13.764;2022-11-20T00:52:27;0.43;;;0.10;;
74656;SDS011;63185;45.642;13.764;2022-11-20T00:54:56;0.08;;;0.00;;
74656;SDS011;63185;45.642;13.764;2022-11-20T00:57:21;0.43;;;0.10;;
74656;SDS011;63185;45.642;13.764;2022-11-20T00:59:47;0.10;;;0.03;;
74656;SDS011;63185;45.642;13.764;2022-11-20T01:02:12;0.63;;;0.20;;
74656;SDS011;63185;45.642;13.764;2022-11-20T01:04:40;0.25;;;0.10;;
74656;SDS011;63185;45.642;13.764;2022-11-20T01:07:06;0.10;;;0.00;;
74656;SDS011;63185;45.642;13.764;2022-11-20T01:09:31;1.50;;;0.00;;
74656;SDS011;63185;45.642;13.764;2022-11-20T01:11:57;0.05;;;0.00;;
74656;SDS011;63185;45.642;13.764;2022-11-20T01:14:24;0.00;;;0.00;;
74656;SDS011;63185;45.642;13.764;2022-11-20T01:16:50;0.20;;;0.00;;
74656;SDS011;63185;45.642;13.764;2022-11-20T01:19:18;0.15;;;0.10;;
74656;SDS011;63185;45.642;13.764;2022-11-20T01:21:50;1.25;;;0.03;;
74656;SDS011;63185;45.642;13.764;2022-11-20T01:26:45;0.75;;;0.10;;
74656;SDS011;63185;45.642;13.764;2022-11-20T01:29:13;0.10;;;0.10;;
74656;SDS011;63185;45.642;13.764;2022-11-20T01:31:44;1.30;;;0.10;;
74656;SDS011;63185;45.642;13.764;2022-11-20T01:34:11;0.30;;;0.10;;
74656;SDS011;63185;45.642;13.764;2022-11-20T01:36:38;0.40;;;0.00;;
74656;SDS011;63185;45.642;13.764;2022-11-20T01:39:06;0.20;;;0.00;;
74656;SDS011;63185;45.642;13.764;2022-11-20T01:41:37;0.10;;;0.00;;
74656;SDS011;63185;45.642;13.764;2022-11-20T01:44:39;0.10;;;0.00;;
74656;SDS011;63185;45.642;13.764;2022-11-20T01:47:14;4.90;;;0.17;;
74656;SDS011;63185;45.642;13.764;2022-11-20T01:49:42;0.22;;;0.10;;
74656;SDS011;63185;45.642;13.764;2022-11-20T01:52:36;0.38;;;0.10;;
74656;SDS011;63185;45.642;13.764;2022-11-20T01:55:10;0.10;;;0.10;;
74656;SDS011;63185;45.642;13.764;2022-11-20T01:57:40;0.35;;;0.10;;
74656;SDS011;63185;45.642;13.764;2022-11-20T02:00:08;0.10;;;0.00;;
74656;SDS011;63185;45.642;13.764;2022-11-20T02:02:36;0.03;;;0.03;;
74656;SDS011;63185;45.642;13.764;2022-11-20T02:05:51;0.17;;;0.10;;
74656;SDS011;63185;45.642;13.764;2022-11-20T02:07:56;0.40;;;0.10;;
74656;SDS011;63185;45.642;13.764;2022-11-20T02:10:24;1.27;;;0.00;;
74656;SDS011;63185;45.642;13.764;2022-11-20T02:12:50;0.15;;;0.00;;
74656;SDS011;63185;45.642;13.764;2022-11-20T02:15:35;0.20;;;0.00;;
74656;SDS011;63185;45.642;13.764;2022-11-20T02:18:00;0.08;;;0.00;;
74656;SDS011;63185;45.642;13.764;2022-11-20T02:20:27;0.90;;;0.00;;
74656;SDS011;63185;45.642;13.764;2022-11-20T02:25:24;0.03;;;0.03;;
74656;SDS011;63185;45.642;13.764;2022-11-20T02:27:51;1.35;;;0.05;;
74656;SDS011;63185;45.642;13.764;2022-11-20T02:30:16;0.15;;;0.00;;
74656;SDS011;63185;45.642;13.764;2022-11-20T02:32:42;0.28;;;0.10;;
74656;SDS011;63185;45.642;13.764;2022-11-20T02:35:10;1.05;;;0.00;;
74656;SDS011;63185;45.642;13.764;2022-11-20T02:37:55;0.03;;;0.00;;
74656;SDS011;63185;45.642;13.764;2022-11-20T02:40:24;0.03;;;0.00;;
74656;SDS011;63185;45.642;13.764;2022-11-20T02:42:53;0.17;;;0.00;;
74656;SDS011;63185;45.642;13.764;2022-11-20T02:45:19;0.17;;;0.00;;
74656;SDS011;63185;45.642;13.764;2022-11-20T02:47:45;0.00;;;0.00;;
74656;SDS011;63185;45.642;13.764;2022-11-20T02:50:11;0.00;;;0.00;;
74656;SDS011;63185;45.642;13.764;2022-11-20T02:52:37;0.10;;;0.00;;
74656;SDS011;63185;45.642;13.764;2022-11-20T02:55:03;0.00;;;0.00;;
74656;SDS011;63185;45.642;13.764;2022-11-20T02:57:29;1.38;;;0.00;;
74656;SDS011;63185;45.642;13.764;2022-11-20T02:59:55;0.25;;;0.05;;
74656;SDS011;63185;45.642;13.764;2022-11-20T03:02:20;0.13;;;0.03;;
74656;SDS011;63185;45.642;13.764;2022-11-20T03:04:46;0.17;;;0.05;;
74656;SDS011;63185;45.642;13.764;2022-11-20T03:07:12;0.30;;;0.00;;
74656;SDS011;63185;45.642;13.764;2022-11-20T03:09:37;0.00;;;0.00;;
74656;SDS011;63185;45.642;13.764;2022-11-20T03:12:03;0.10;;;0.08;;
74656;SDS011;63185;45.642;13.764;2022-11-20T03:14:30;0.10;;;0.05;;
74656;SDS011;63185;45.642;13.764;2022-11-20T03:16:55;0.35;;;0.20;;
74656;SDS011;63185;45.642;13.764;2022-11-20T03:19:21;0.10;;;0.00;;
74656;SDS011;63185;45.642;13.764;2022-11-20T03:21:47;0.00;;;0.00;;
74656;SDS011;63185;45.642;13.764;2022-11-20T03:24:13;0.10;;;0.00;;
74656;SDS011;63185;45.642;13.764;2022-11-20T03:26:39;0.00;;;0.00;;
74656;SDS011;63185;45.642;13.764;2022-11-20T03:29:05;0.00;;;0.00;;
74656;SDS011;63185;45.642;13.764;2022-11-20T03:31:32;0.47;;;0.00;;
74656;SDS011;63185;45.642;13.764;2022-11-20T03:34:00;0.25;;;0.10;;
74656;SDS011;63185;45.642;13.764;2022-11-20T03:36:26;0.10;;;0.00;;
74656;SDS011;63185;45.642;13.764;2022-11-20T03:38:53;0.30;;;0.00;;
74656;SDS011;63185;45.642;13.764;2022-11-20T03:41:20;0.00;;;0.00;;
74656;SDS011;63185;45.642;13.764;2022-11-20T03:43:57;0.28;;;0.00;;
74656;SDS011;63185;45.642;13.764;2022-11-20T03:46:25;0.00;;;0.00;;
74656;SDS011;63185;45.642;13.764;2022-11-20T03:48:51;0.30;;;0.08;;
74656;SDS011;63185;45.642;13.764;2022-11-20T03:51:24;0.65;;;0.10;;
74656;SDS011;63185;45.642;13.764;2022-11-20T03:53:52;0.00;;;0.00;;
74656;SDS011;63185;45.642;13.764;2022-11-20T03:56:22;0.17;;;0.05;;
74656;SDS011;63185;45.642;13.764;2022-11-20T03:58:48;0.00;;;0.00;;
74656;SDS011;63185;45.642;13.764;2022-11-20T04:01:15;0.00;;;0.00;;
74656;SDS011;63185;45.642;13.764;2022-11-20T04:03:42;0.10;;;0.00;;
74656;SDS011;63185;45.642;13.764;2022-11-20T04:06:13;0.20;;;0.00;;
74656;SDS011;63185;45.642;13.764;2022-11-20T04:08:41;0.25;;;0.00;;
74656;SDS011;63185;45.642;13.764;2022-11-20T04:11:49;0.10;;;0.00;;
74656;SDS011;63185;45.642;13.764;2022-11-20T04:13:58;0.40;;;0.00;;
74656;SDS011;63185;45.642;13.764;2022-11-20T04:16:25;0.00;;;0.00;;
74656;SDS011;63185;45.642;13.764;2022-11-20T04:18:55;0.00;;;0.00;;
74656;SDS011;63185;45.642;13.764;2022-11-20T04:21:23;0.10;;;0.00;;
74656;SDS011;63185;45.642;13.764;2022-11-20T04:23:49;0.00;;;0.00;;
74656;SDS011;63185;45.642;13.764;2022-11-20T04:26:15;0.00;;;0.00;;
74656;SDS011;63185;45.642;13.764;2022-11-20T04:28:41;0.13;;;0.00;;
74656;SDS011;63185;45.642;13.764;2022-11-20T04:31:14;0.17;;;0.00;;
74656;SDS011;63185;45.642;13.764;2022-11-20T04:33:42;0.00;;;0.00;;
74656;SDS011;63185;45.642;13.764;2022-11-20T04:36:12;0.00;;;0.00;;
74656;SDS011;63185;45.642;13.764;2022-11-20T04:38:40;0.22;;;0.00;;
74656;SDS011;63185;45.642;13.764;2022-11-20T04:41:08;0.10;;;0.00;;
74656;SDS011;63185;45.642;13.764;2022-11-20T04:43:40;0.10;;;0.00;;
74656;SDS011;63185;45.642;13.764;2022-11-20T04:46:06;0.00;;;0.00;;
74656;SDS011;63185;45.642;13.764;2022-11-20T04:48:31;0.65;;;0.10;;
74656;SDS011;63185;45.642;13.764;2022-11-20T04:50:57;0.00;;;0.00;;
74656;SDS011;63185;45.642;13.764;2022-11-20T04:53:27;0.00;;;0.00;;
74656;SDS011;63185;45.642;13.764;2022-11-20T04:55:58;0.00;;;0.00;;
74656;SDS011;63185;45.642;13.764;2022-11-20T04:58:28;0.38;;;0.00;;
74656;SDS011;63185;45.642;13.764;2022-11-20T05:01:04;0.13;;;0.00;;
74656;SDS011;63185;45.642;13.764;2022-11-20T05:03:35;0.10;;;0.00;;
74656;SDS011;63185;45.642;13.764;2022-11-20T05:06:02;0.00;;;0.00;;
74656;SDS011;63185;45.642;13.764;2022-11-20T05:08:30;0.13;;;0.08;;
74656;SDS011;63185;45.642;13.764;2022-11-20T05:11:03;1.13;;;0.00;;
74656;SDS011;63185;45.642;13.764;2022-11-20T05:13:31;0.52;;;0.00;;
74656;SDS011;63185;45.642;13.764;2022-11-20T05:16:04;0.00;;;0.00;;
74656;SDS011;63185;45.642;13.764;2022-11-20T05:18:31;0.10;;;0.00;;
74656;SDS011;63185;45.642;13.764;2022-11-20T05:20:58;0.00;;;0.00;;
74656;SDS011;63185;45.642;13.764;2022-11-20T05:23:25;0.20;;;0.00;;
74656;SDS011;63185;45.642;13.764;2022-11-20T05:25:52;0.00;;;0.00;;
74656;SDS011;63185;45.642;13.764;2022-11-20T05:28:19;0.00;;;0.00;;
74656;SDS011;63185;45.642;13.764;2022-11-20T05:30:44;0.10;;;0.00;;
74656;SDS011;63185;45.642;13.764;2022-11-20T05:33:10;0.00;;;0.00;;
74656;SDS011;63185;45.642;13.764;2022-11-20T05:35:36;0.00;;;0.00;;
74656;SDS011;63185;45.642;13.764;2022-11-20T05:38:02;0.22;;;0.00;;
74656;SDS011;63185;45.642;13.764;2022-11-20T05:40:27;0.32;;;0.00;;
74656;SDS011;63185;45.642;13.764;2022-11-20T05:42:53;0.40;;;0.00;;
74656;SDS011;63185;45.642;13.764;2022-11-20T05:45:19;0.40;;;0.08;;
74656;SDS011;63185;45.642;13.764;2022-11-20T05:47:44;0.65;;;0.00;;
74656;SDS011;63185;45.642;13.764;2022-11-20T05:50:10;0.00;;;0.00;;
74656;SDS011;63185;45.642;13.764;2022-11-20T05:52:35;0.00;;;0.00;;
74656;SDS011;63185;45.642;13.764;2022-11-20T05:55:01;1.25;;;0.00;;
74656;SDS011;63185;45.642;13.764;2022-11-20T05:57:27;0.05;;;0.00;;
74656;SDS011;63185;45.642;13.764;2022-11-20T05:59:53;0.00;;;0.00;;
74656;SDS011;63185;45.642;13.764;2022-11-20T06:02:18;0.25;;;0.10;;
74656;SDS011;63185;45.642;13.764;2022-11-20T06:04:44;0.00;;;0.00;;
74656;SDS011;63185;45.642;13.764;2022-11-20T06:07:10;0.38;;;0.10;;
74656;SDS011;63185;45.642;13.764;2022-11-20T06:09:35;0.15;;;0.00;;
74656;SDS011;63185;45.642;13.764;2022-11-20T06:12:01;0.55;;;0.00;;
74656;SDS011;63185;45.642;13.764;2022-11-20T06:14:27;0.03;;;0.00;;
74656;SDS011;63185;45.642;13.764;2022-11-20T06:16:52;0.40;;;0.10;;
74656;SDS011;63185;45.642;13.764;2022-11-20T06:19:18;0.03;;;0.00;;
74656;SDS011;63185;45.642;13.764;2022-11-20T06:21:44;0.00;;;0.00;;
74656;SDS011;63185;45.642;13.764;2022-11-20T06:24:10;0.17;;;0.00;;
74656;SDS011;63185;45.642;13.764;2022-11-20T06:26:35;0.03;;;0.00;;
74656;SDS011;63185;45.642;13.764;2022-11-20T06:29:01;0.63;;;0.00;;
74656;SDS011;63185;45.642;13.764;2022-11-20T06:31:27;0.50;;;0.10;;
74656;SDS011;63185;45.642;13.764;2022-11-20T06:33:53;0.00;;;0.00;;
74656;SDS011;63185;45.642;13.764;2022-11-20T06:36:20;0.10;;;0.00;;
74656;SDS011;63185;45.642;13.764;2022-11-20T06:38:46;0.20;;;0.10;;
74656;SDS011;63185;45.642;13.764;2022-11-20T06:41:14;0.30;;;0.10;;
74656;SDS011;63185;45.642;13.764;2022-11-20T06:43:41;0.25;;;0.08;;
74656;SDS011;63185;45.642;13.764;2022-11-20T06:46:08;0.05;;;0.00;;
74656;SDS011;63185;45.642;13.764;2022-11-20T06:48:35;0.88;;;0.00;;
74656;SDS011;63185;45.642;13.764;2022-11-20T06:51:02;0.40;;;0.10;;
74656;SDS011;63185;45.642;13.764;2022-11-20T06:53:29;0.10;;;0.00;;
74656;SDS011;63185;45.642;13.764;2022-11-20T06:55:55;0.10;;;0.00;;
74656;SDS011;63185;45.642;13.764;2022-11-20T06:58:22;0.15;;;0.03;;
74656;SDS011;63185;45.642;13.764;2022-11-20T07:00:50;0.10;;;0.10;;
74656;SDS011;63185;45.642;13.764;2022-11-20T07:03:16;0.28;;;0.00;;
74656;SDS011;63185;45.642;13.764;2022-11-20T07:05:45;1.48;;;0.08;;
74656;SDS011;63185;45.642;13.764;2022-11-20T07:08:11;0.30;;;0.00;;
74656;SDS011;63185;45.642;13.764;2022-11-20T07:10:37;0.45;;;0.00;;
74656;SDS011;63185;45.642;13.764;2022-11-20T07:13:03;0.20;;;0.10;;
74656;SDS011;63185;45.642;13.764;2022-11-20T07:15:28;0.10;;;0.08;;
74656;SDS011;63185;45.642;13.764;2022-11-20T07:17:54;0.10;;;0.10;;
74656;SDS011;63185;45.642;13.764;2022-11-20T07:20:20;0.10;;;0.00;;
74656;SDS011;63185;45.642;13.764;2022-11-20T07:22:46;0.03;;;0.00;;
74656;SDS011;63185;45.642;13.764;2022-11-20T07:25:11;0.10;;;0.00;;
74656;SDS011;63185;45.642;13.764;2022-11-20T07:27:37;0.10;;;0.00;;
74656;SDS011;63185;45.642;13.764;2022-11-20T07:30:03;0.00;;;0.00;;
74656;SDS011;63185;45.642;13.764;2022-11-20T07:32:29;0.00;;;0.00;;
74656;SDS011;63185;45.642;13.764;2022-11-20T07:34:55;0.17;;;0.00;;
74656;SDS011;63185;45.642;13.764;2022-11-20T07:37:21;0.10;;;0.10;;
74656;SDS011;63185;45.642;13.764;2022-11-20T07:39:46;0.00;;;0.00;;
74656;SDS011;63185;45.642;13.764;2022-11-20T07:42:12;0.30;;;0.00;;
74656;SDS011;63185;45.642;13.764;2022-11-20T07:44:38;0.00;;;0.00;;
74656;SDS011;63185;45.642;13.764;2022-11-20T07:47:04;0.00;;;0.00;;
74656;SDS011;63185;45.642;13.764;2022-11-20T07:49:30;0.45;;;0.10;;
74656;SDS011;63185;45.642;13.764;2022-11-20T07:51:55;0.30;;;0.03;;
74656;SDS011;63185;45.642;13.764;2022-11-20T07:54:21;0.73;;;0.10;;
74656;SDS011;63185;45.642;13.764;2022-11-20T07:56:47;0.13;;;0.10;;
74656;SDS011;63185;45.642;13.764;2022-11-20T07:59:14;0.17;;;0.10;;
74656;SDS011;63185;45.642;13.764;2022-11-20T08:01:40;0.20;;;0.10;;
74656;SDS011;63185;45.642;13.764;2022-11-20T08:04:07;0.50;;;0.20;;
74656;SDS011;63185;45.642;13.764;2022-11-20T08:06:33;0.70;;;0.03;;
74656;SDS011;63185;45.642;13.764;2022-11-20T08:09:00;0.20;;;0.10;;
74656;SDS011;63185;45.642;13.764;2022-11-20T08:11:26;0.40;;;0.10;;
74656;SDS011;63185;45.642;13.764;2022-11-20T08:14:10;0.43;;;0.25;;
74656;SDS011;63185;45.642;13.764;2022-11-20T08:16:39;0.32;;;0.10;;
74656;SDS011;63185;45.642;13.764;2022-11-20T08:19:06;0.10;;;0.00;;
74656;SDS011;63185;45.642;13.764;2022-11-20T08:21:32;0.47;;;0.20;;
74656;SDS011;63185;45.642;13.764;2022-11-20T08:23:58;0.30;;;0.15;;
74656;SDS011;63185;45.642;13.764;2022-11-20T08:26:24;0.60;;;0.20;;
74656;SDS011;63185;45.642;13.764;2022-11-20T08:28:54;0.00;;;0.00;;
74656;SDS011;63185;45.642;13.764;2022-11-20T08:31:20;0.10;;;0.10;;
74656;SDS011;63185;45.642;13.764;2022-11-20T08:33:46;0.32;;;0.20;;
74656;SDS011;63185;45.642;13.764;2022-11-20T08:36:12;0.45;;;0.10;;
74656;SDS011;63185;45.642;13.764;2022-11-20T08:38:38;0.40;;;0.10;;
74656;SDS011;63185;45.642;13.764;2022-11-20T08:41:04;0.30;;;0.10;;
74656;SDS011;63185;45.642;13.764;2022-11-20T08:43:49;0.55;;;0.10;;
74656;SDS011;63185;45.642;13.764;2022-11-20T08:46:15;2.08;;;0.20;;
74656;SDS011;63185;45.642;13.764;2022-11-20T08:48:41;0.30;;;0.10;;
74656;SDS011;63185;45.642;13.764;2022-11-20T08:51:08;1.20;;;0.20;;
74656;SDS011;63185;45.642;13.764;2022-11-20T08:53:34;0.30;;;0.10;;
74656;SDS011;63185;45.642;13.764;2022-11-20T08:55:59;0.80;;;0.20;;
74656;SDS011;63185;45.642;13.764;2022-11-20T08:58:25;0.32;;;0.20;;
74656;SDS011;63185;45.642;13.764;2022-11-20T09:00:51;0.30;;;0.17;;
74656;SDS011;63185;45.642;13.764;2022-11-20T09:03:18;0.50;;;0.20;;
74656;SDS011;63185;45.642;13.764;2022-11-20T09:05:45;0.28;;;0.10;;
74656;SDS011;63185;45.642;13.764;2022-11-20T09:08:10;0.40;;;0.20;;
74656;SDS011;63185;45.642;13.764;2022-11-20T09:10:36;0.20;;;0.20;;
74656;SDS011;63185;45.642;13.764;2022-11-20T09:13:04;0.17;;;0.10;;
74656;SDS011;63185;45.642;13.764;2022-11-20T09:15:31;0.73;;;0.15;;
74656;SDS011;63185;45.642;13.764;2022-11-20T09:17:58;0.52;;;0.22;;
74656;SDS011;63185;45.642;13.764;2022-11-20T09:20:26;0.82;;;0.25;;
74656;SDS011;63185;45.642;13.764;2022-11-20T09:22:53;0.30;;;0.20;;
74656;SDS011;63185;45.642;13.764;2022-11-20T09:25:19;1.00;;;0.20;;
74656;SDS011;63185;45.642;13.764;2022-11-20T09:27:45;0.60;;;0.10;;
74656;SDS011;63185;45.642;13.764;2022-11-20T09:30:12;0.40;;;0.20;;
74656;SDS011;63185;45.642;13.764;2022-11-20T09:32:39;0.77;;;0.20;;
74656;SDS011;63185;45.642;13.764;2022-11-20T09:35:05;0.63;;;0.20;;
74656;SDS011;63185;45.642;13.764;2022-11-20T09:37:31;0.82;;;0.30;;
74656;SDS011;63185;45.642;13.764;2022-11-20T09:39:56;0.47;;;0.20;;
74656;SDS011;63185;45.642;13.764;2022-11-20T09:51:01;1.10;;;0.43;;
74656;SDS011;63185;45.642;13.764;2022-11-20T09:54:06;1.05;;;0.30;;
74656;SDS011;63185;45.642;13.764;2022-11-20T09:56:40;0.75;;;0.40;;
74656;SDS011;63185;45.642;13.764;2022-11-20T10:02:22;1.23;;;0.40;;
74656;SDS011;63185;45.642;13.764;2022-11-20T10:10:14;1.23;;;0.40;;
74656;SDS011;63185;45.642;13.764;2022-11-20T10:13:04;1.65;;;0.70;;
74656;SDS011;63185;45.642;13.764;2022-11-20T10:15:33;0.85;;;0.40;;
74656;SDS011;63185;45.642;13.764;2022-11-20T10:29:17;0.85;;;0.40;;
74656;SDS011;63185;45.642;13.764;2022-11-20T10:32:16;0.82;;;0.40;;
74656;SDS011;63185;45.642;13.764;2022-11-20T10:34:49;0.82;;;0.45;;
74656;SDS011;63185;45.642;13.764;2022-11-20T10:37:18;0.73;;;0.40;;
74656;SDS011;63185;45.642;13.764;2022-11-20T10:39:50;3.05;;;0.80;;
74656;SDS011;63185;45.642;13.764;2022-11-20T10:42:31;2.42;;;0.75;;
74656;SDS011;63185;45.642;13.764;2022-11-20T10:47:56;1.25;;;0.40;;
74656;SDS011;63185;45.642;13.764;2022-11-20T10:50:40;3.72;;;1.13;;
74656;SDS011;63185;45.642;13.764;2022-11-20T10:55:56;1.88;;;0.70;;
74656;SDS011;63185;45.642;13.764;2022-11-20T10:58:37;5.22;;;2.40;;
74656;SDS011;63185;45.642;13.764;2022-11-20T11:01:16;2.97;;;0.70;;
74656;SDS011;63185;45.642;13.764;2022-11-20T11:03:43;0.77;;;0.45;;
74656;SDS011;63185;45.642;13.764;2022-11-20T11:08:38;2.17;;;0.82;;
74656;SDS011;63185;45.642;13.764;2022-11-20T11:13:33;3.22;;;0.55;;
74656;SDS011;63185;45.642;13.764;2022-11-20T11:15:59;0.77;;;0.50;;
74656;SDS011;63185;45.642;13.764;2022-11-20T11:20:54;0.90;;;0.35;;
74656;SDS011;63185;45.642;13.764;2022-11-20T11:25:59;0.55;;;0.40;;
74656;SDS011;63185;45.642;13.764;2022-11-20T11:28:26;0.90;;;0.40;;
74656;SDS011;63185;45.642;13.764;2022-11-20T11:30:53;1.58;;;0.75;;
74656;SDS011;63185;45.642;13.764;2022-11-20T11:33:27;0.85;;;0.40;;
74656;SDS011;63185;45.642;13.764;2022-11-20T11:36:02;2.13;;;1.00;;
74656;SDS011;63185;45.642;13.764;2022-11-20T11:41:03;1.55;;;0.85;;
74656;SDS011;63185;45.642;13.764;2022-11-20T11:43:34;2.03;;;0.77;;
74656;SDS011;63185;45.642;13.764;2022-11-20T11:48:56;1.17;;;0.60;;
74656;SDS011;63185;45.642;13.764;2022-11-20T11:51:28;1.42;;;0.60;;
74656;SDS011;63185;45.642;13.764;2022-11-20T11:54:11;2.20;;;0.95;;
74656;SDS011;63185;45.642;13.764;2022-11-20T11:56:48;0.80;;;0.40;;
74656;SDS011;63185;45.642;13.764;2022-11-20T11:59:18;2.50;;;0.82;;
74656;SDS011;63185;45.642;13.764;2022-11-20T12:01:57;1.40;;;0.52;;
74656;SDS011;63185;45.642;13.764;2022-11-20T12:10:15;0.98;;;0.50;;
74656;SDS011;63185;45.642;13.764;2022-11-20T12:12:48;2.28;;;0.50;;
74656;SDS011;63185;45.642;13.764;2022-11-20T12:15:35;2.03;;;0.60;;
74656;SDS011;63185;45.642;13.764;2022-11-20T12:18:04;1.45;;;0.60;;
74656;SDS011;63185;45.642;13.764;2022-11-20T12:20:41;1.38;;;0.40;;
74656;SDS011;63185;45.642;13.764;2022-11-20T12:25:43;1.80;;;0.75;;
74656;SDS011;63185;45.642;13.764;2022-11-20T12:30:59;2.17;;;0.80;;
74656;SDS011;63185;45.642;13.764;2022-11-20T12:33:45;1.33;;;0.77;;
74656;SDS011;63185;45.642;13.764;2022-11-20T12:53:02;2.45;;;1.00;;
74656;SDS011;63185;45.642;13.764;2022-11-20T12:55:32;2.25;;;0.88;;
74656;SDS011;63185;45.642;13.764;2022-11-20T12:58:10;1.90;;;0.70;;
74656;SDS011;63185;45.642;13.764;2022-11-20T13:00:51;1.80;;;0.77;;
74656;SDS011;63185;45.642;13.764;2022-11-20T13:04:00;1.08;;;0.60;;
74656;SDS011;63185;45.642;13.764;2022-11-20T13:06:22;1.42;;;0.60;;
74656;SDS011;63185;45.642;13.764;2022-11-20T13:08:53;1.38;;;0.75;;
74656;SDS011;63185;45.642;13.764;2022-11-20T13:11:24;0.90;;;0.50;;
74656;SDS011;63185;45.642;13.764;2022-11-20T13:14:58;2.38;;;0.77;;
74656;SDS011;63185;45.642;13.764;2022-11-20T13:17:28;1.80;;;0.70;;
74656;SDS011;63185;45.642;13.764;2022-11-20T13:19:56;1.55;;;0.57;;
74656;SDS011;63185;45.642;13.764;2022-11-20T13:22:27;1.67;;;0.40;;
74656;SDS011;63185;45.642;13.764;2022-11-20T13:24:54;1.10;;;0.60;;
74656;SDS011;63185;45.642;13.764;2022-11-20T13:27:21;2.80;;;0.80;;
74656;SDS011;63185;45.642;13.764;2022-11-20T13:30:01;1.80;;;0.50;;
74656;SDS011;63185;45.642;13.764;2022-11-20T13:32:47;2.22;;;0.35;;
74656;SDS011;63185;45.642;13.764;2022-11-20T13:35:31;0.75;;;0.40;;
74656;SDS011;63185;45.642;13.764;2022-11-20T13:38:08;0.40;;;0.20;;
74656;SDS011;63185;45.642;13.764;2022-11-20T13:40:50;2.70;;;0.52;;
74656;SDS011;63185;45.642;13.764;2022-11-20T13:43:40;0.88;;;0.47;;
74656;SDS011;63185;45.642;13.764;2022-11-20T13:46:08;1.52;;;0.50;;
74656;SDS011;63185;45.642;13.764;2022-11-20T13:48:44;1.50;;;0.63;;
74656;SDS011;63185;45.642;13.764;2022-11-20T13:51:16;1.05;;;0.60;;
74656;SDS011;63185;45.642;13.764;2022-11-20T14:02:16;1.90;;;0.82;;
74656;SDS011;63185;45.642;13.764;2022-11-20T14:04:47;1.63;;;0.70;;
74656;SDS011;63185;45.642;13.764;2022-11-20T14:07:15;2.83;;;1.13;;
74656;SDS011;63185;45.642;13.764;2022-11-20T14:09:53;1.73;;;0.70;;
74656;SDS011;63185;45.642;13.764;2022-11-20T14:12:22;3.40;;;0.70;;
74656;SDS011;63185;45.642;13.764;2022-11-20T14:14:59;1.85;;;0.70;;
74656;SDS011;63185;45.642;13.764;2022-11-20T14:17:34;1.10;;;0.55;;
74656;SDS011;63185;45.642;13.764;2022-11-20T14:20:05;1.77;;;0.80;;
74656;SDS011;63185;45.642;13.764;2022-11-20T14:22:37;1.83;;;0.50;;
74656;SDS011;63185;45.642;13.764;2022-11-20T14:25:17;0.77;;;0.50;;
74656;SDS011;63185;45.642;13.764;2022-11-20T14:27:59;1.02;;;0.43;;
74656;SDS011;63185;45.642;13.764;2022-11-20T14:30:28;0.88;;;0.30;;
74656;SDS011;63185;45.642;13.764;2022-11-20T14:33:03;0.63;;;0.40;;
74656;SDS011;63185;45.642;13.764;2022-11-20T14:35:31;2.00;;;0.40;;
74656;SDS011;63185;45.642;13.764;2022-11-20T14:38:02;1.13;;;0.60;;
74656;SDS011;63185;45.642;13.764;2022-11-20T14:40:32;1.15;;;0.57;;
74656;SDS011;63185;45.642;13.764;2022-11-20T14:43:04;1.60;;;0.45;;
74656;SDS011;63185;45.642;13.764;2022-11-20T14:45:49;0.68;;;0.43;;
74656;SDS011;63185;45.642;13.764;2022-11-20T14:48:40;1.35;;;0.43;;
74656;SDS011;63185;45.642;13.764;2022-11-20T14:51:11;5.93;;;2.55;;
74656;SDS011;63185;45.642;13.764;2022-11-20T14:53:47;1.60;;;0.70;;
74656;SDS011;63185;45.642;13.764;2022-11-20T14:56:13;1.38;;;0.40;;
74656;SDS011;63185;45.642;13.764;2022-11-20T14:58:56;1.10;;;0.50;;
74656;SDS011;63185;45.642;13.764;2022-11-20T15:01:26;1.50;;;0.50;;
74656;SDS011;63185;45.642;13.764;2022-11-20T15:04:04;5.05;;;2.85;;
74656;SDS011;63185;45.642;13.764;2022-11-20T15:06:32;1.73;;;0.90;;
74656;SDS011;63185;45.642;13.764;2022-11-20T15:08:58;0.80;;;0.50;;
74656;SDS011;63185;45.642;13.764;2022-11-20T15:11:28;1.45;;;0.60;;
74656;SDS011;63185;45.642;13.764;2022-11-20T15:13:56;1.23;;;0.57;;
74656;SDS011;63185;45.642;13.764;2022-11-20T15:16:23;0.57;;;0.40;;
74656;SDS011;63185;45.642;13.764;2022-11-20T15:18:50;2.45;;;0.43;;
74656;SDS011;63185;45.642;13.764;2022-11-20T15:21:17;1.58;;;0.50;;
74656;SDS011;63185;45.642;13.764;2022-11-20T15:23:44;2.50;;;1.48;;
74656;SDS011;63185;45.642;13.764;2022-11-20T15:26:10;0.80;;;0.50;;
74656;SDS011;63185;45.642;13.764;2022-11-20T15:28:44;1.48;;;0.75;;
74656;SDS011;63185;45.642;13.764;2022-11-20T15:31:13;1.10;;;0.40;;
74656;SDS011;63185;45.642;13.764;2022-11-20T15:33:40;3.08;;;1.67;;
74656;SDS011;63185;45.642;13.764;2022-11-20T15:36:06;5.10;;;2.85;;
74656;SDS011;63185;45.642;13.764;2022-11-20T15:38:32;2.22;;;1.10;;
74656;SDS011;63185;45.642;13.764;2022-11-20T15:40:57;3.85;;;2.05;;
74656;SDS011;63185;45.642;13.764;2022-11-20T15:43:23;1.70;;;0.80;;
74656;SDS011;63185;45.642;13.764;2022-11-20T15:45:49;2.55;;;0.90;;
74656;SDS011;63185;45.642;13.764;2022-11-20T15:51:21;2.30;;;0.68;;
74656;SDS011;63185;45.642;13.764;2022-11-20T15:53:59;4.90;;;2.03;;
74656;SDS011;63185;45.642;13.764;2022-11-20T15:56:25;4.82;;;2.08;;
74656;SDS011;63185;45.642;13.764;2022-11-20T15:58:50;3.08;;;1.38;;
74656;SDS011;63185;45.642;13.764;2022-11-20T16:01:17;1.67;;;0.75;;
74656;SDS011;63185;45.642;13.764;2022-11-20T16:03:45;6.05;;;1.58;;
74656;SDS011;63185;45.642;13.764;2022-11-20T16:06:11;6.55;;;2.45;;
74656;SDS011;63185;45.642;13.764;2022-11-20T16:08:37;9.50;;;4.78;;
74656;SDS011;63185;45.642;13.764;2022-11-20T16:11:05;6.28;;;2.80;;
74656;SDS011;63185;45.642;13.764;2022-11-20T16:13:31;2.03;;;1.20;;
74656;SDS011;63185;45.642;13.764;2022-11-20T16:16:25;1.98;;;1.10;;
74656;SDS011;63185;45.642;13.764;2022-11-20T16:18:55;2.55;;;1.02;;
74656;SDS011;63185;45.642;13.764;2022-11-20T16:21:21;1.67;;;0.50;;